createdAt,value
2019-03-21T00:01:39.924Z,-0.25
2019-03-21T00:04:14.558Z,-0.30
2019-03-21T00:06:47.049Z,-0.26
2019-03-21T00:09:20.545Z,-0.22
2019-03-21T00:12:01.960Z,-0.32
2019-03-21T00:14:56.752Z,-0.32
2019-03-21T00:17:36.712Z,-0.34
2019-03-21T00:20:14.018Z,-0.42
2019-03-21T00:22:46.627Z,-0.44
2019-03-21T00:25:22.702Z,-0.44
2019-03-21T00:27:55.215Z,-0.51
2019-03-21T00:30:27.899Z,-0.60
2019-03-21T00:33:00.492Z,-0.70
2019-03-21T00:35:33.103Z,-0.84
2019-03-21T00:38:05.759Z,-0.75
2019-03-21T00:40:43.773Z,-0.76
2019-03-21T00:43:15.563Z,-0.79
2019-03-21T00:45:48.259Z,-0.75
2019-03-21T00:48:22.232Z,-0.75
2019-03-21T00:50:55.155Z,-0.80
2019-03-21T00:53:27.695Z,-0.84
2019-03-21T00:56:00.254Z,-0.89
2019-03-21T00:58:32.840Z,-0.79
2019-03-21T01:01:05.806Z,-0.77
2019-03-21T01:03:38.401Z,-0.75
2019-03-21T01:06:10.997Z,-0.76
2019-03-21T01:08:43.512Z,-0.83
2019-03-21T01:11:16.058Z,-0.82
2019-03-21T01:13:49.043Z,-0.86
2019-03-21T01:16:21.592Z,-0.92
2019-03-21T01:18:54.481Z,-1.03
2019-03-21T01:21:27.102Z,-1.15
2019-03-21T01:23:59.695Z,-1.21
2019-03-21T01:26:32.586Z,-1.30
2019-03-21T01:29:05.575Z,-1.27
2019-03-21T01:31:38.102Z,-1.19
2019-03-21T01:34:10.626Z,-1.27
2019-03-21T01:36:43.549Z,-1.29
2019-03-21T01:39:16.064Z,-1.29
2019-03-21T01:41:48.603Z,-1.28
2019-03-21T01:44:21.154Z,-1.25
2019-03-21T01:46:53.675Z,-1.35
2019-03-21T01:49:26.244Z,-1.49
2019-03-21T01:51:59.825Z,-1.56
2019-03-21T01:54:32.418Z,-1.46
2019-03-21T01:57:05.212Z,-1.46
2019-03-21T01:59:37.710Z,-1.45
2019-03-21T02:02:11.606Z,-1.41
2019-03-21T02:04:45.551Z,-1.43
2019-03-21T02:07:18.429Z,-1.42
2019-03-21T02:09:51.013Z,-1.42
2019-03-21T02:12:23.612Z,-1.44
2019-03-21T02:14:56.140Z,-1.38
2019-03-21T02:17:28.662Z,-1.44
2019-03-21T02:20:01.207Z,-1.47
2019-03-21T02:22:34.885Z,-1.52
2019-03-21T02:25:13.190Z,-1.56
2019-03-21T02:27:45.772Z,-1.64
2019-03-21T02:30:25.201Z,-1.64
2019-03-21T02:33:08.728Z,-1.67
2019-03-21T02:35:41.233Z,-1.67
2019-03-21T02:38:14.158Z,-1.64
2019-03-21T02:40:47.878Z,-1.68
2019-03-21T02:43:20.419Z,-1.67
2019-03-21T02:45:53.002Z,-1.73
2019-03-21T02:48:25.869Z,-1.74
2019-03-21T02:50:58.444Z,-1.82
2019-03-21T02:53:30.962Z,-1.85
2019-03-21T02:56:03.530Z,-1.84
2019-03-21T02:58:36.123Z,-1.93
2019-03-21T03:01:08.655Z,-1.91
2019-03-21T03:03:41.273Z,-1.96
2019-03-21T03:06:13.932Z,-2.06
2019-03-21T03:08:46.457Z,-2.06
2019-03-21T03:11:19.339Z,-2.11
2019-03-21T03:13:52.223Z,-2.16
2019-03-21T03:16:24.841Z,-2.12
2019-03-21T03:18:57.363Z,-2.15
2019-03-21T03:21:29.953Z,-2.13
2019-03-21T03:24:02.480Z,-2.14
2019-03-21T03:26:35.294Z,-2.17
2019-03-21T03:29:09.088Z,-2.22
2019-03-21T03:31:42.057Z,-2.30
2019-03-21T03:34:14.841Z,-2.23
2019-03-21T03:36:47.349Z,-2.31
2019-03-21T03:39:19.889Z,-2.31
2019-03-21T03:41:52.399Z,-2.26
2019-03-21T03:44:24.941Z,-2.27
2019-03-21T03:46:57.456Z,-2.36
2019-03-21T03:49:30.296Z,-2.32
2019-03-21T03:52:03.187Z,-2.31
2019-03-21T03:54:35.777Z,-2.29
2019-03-21T03:57:08.366Z,-2.30
2019-03-21T03:59:41.338Z,-2.32
2019-03-21T04:02:13.924Z,-2.36
2019-03-21T04:04:46.526Z,-2.38
2019-03-21T04:07:19.185Z,-2.35
2019-03-21T04:09:51.867Z,-2.36
2019-03-21T04:12:24.731Z,-2.35
2019-03-21T04:14:57.439Z,-2.18
2019-03-21T04:17:29.934Z,-2.21
2019-03-21T04:20:02.575Z,-2.30
2019-03-21T04:22:35.387Z,-2.43
2019-03-21T04:25:09.680Z,-2.45
2019-03-21T04:27:42.234Z,-2.53
2019-03-21T04:30:16.124Z,-2.55
2019-03-21T04:32:50.345Z,-2.72
2019-03-21T04:35:23.120Z,-2.95
2019-03-21T04:37:55.648Z,-2.83
2019-03-21T04:40:28.274Z,-2.83
2019-03-21T04:43:01.053Z,-2.84
2019-03-21T04:45:33.772Z,-2.69
2019-03-21T04:48:07.565Z,-2.62
2019-03-21T04:50:40.346Z,-2.64
2019-03-21T04:53:12.866Z,-2.62
2019-03-21T04:55:45.447Z,-2.63
2019-03-21T04:58:18.306Z,-2.60
2019-03-21T05:00:50.936Z,-2.60
2019-03-21T05:03:23.978Z,-2.67
2019-03-21T05:05:56.516Z,-2.61
2019-03-21T05:08:29.062Z,-2.53
2019-03-21T05:11:02.070Z,-2.52
2019-03-21T05:13:34.700Z,-2.60
2019-03-21T05:16:14.676Z,-2.69
2019-03-21T05:18:43.483Z,-2.61
2019-03-21T05:21:17.389Z,-2.77
2019-03-21T05:23:50.419Z,-2.88
2019-03-21T05:26:22.953Z,-2.93
2019-03-21T05:28:55.476Z,-3.02
2019-03-21T05:31:31.733Z,-2.97
2019-03-21T05:34:04.305Z,-3.03
2019-03-21T05:36:36.814Z,-2.99
2019-03-21T05:39:11.110Z,-2.93
2019-03-21T05:41:43.611Z,-3.00
2019-03-21T05:44:31.819Z,-2.88
2019-03-21T05:47:04.402Z,-2.77
2019-03-21T05:49:36.917Z,-2.76
2019-03-21T05:52:11.152Z,-2.69
2019-03-21T05:54:43.734Z,-2.68
2019-03-21T05:57:16.257Z,-2.71
2019-03-21T05:59:48.794Z,-2.61
2019-03-21T06:02:21.287Z,-2.55
2019-03-21T06:04:54.061Z,-2.50
2019-03-21T06:07:40.355Z,-2.46
2019-03-21T06:10:15.207Z,-2.34
2019-03-21T06:12:47.920Z,-2.24
2019-03-21T06:15:25.061Z,-2.09
2019-03-21T06:18:49.338Z,-1.97
2019-03-21T06:21:37.441Z,-1.84
2019-03-21T06:24:37.107Z,-1.78
2019-03-21T06:27:43.059Z,-1.74
2019-03-21T06:30:15.578Z,-1.67
2019-03-21T06:32:48.095Z,-1.58
2019-03-21T06:35:24.524Z,-1.56
2019-03-21T06:37:59.239Z,-1.49
2019-03-21T06:40:31.742Z,-1.41
2019-03-21T06:43:04.320Z,-1.35
2019-03-21T06:45:47.485Z,-1.27
2019-03-21T06:48:12.032Z,-1.13
2019-03-21T06:50:44.642Z,-1.07
2019-03-21T06:53:17.148Z,-0.94
2019-03-21T06:55:50.139Z,-0.87
2019-03-21T06:58:22.789Z,-0.78
2019-03-21T07:00:55.309Z,-0.65
2019-03-21T07:03:27.810Z,-0.55
2019-03-21T07:06:00.315Z,-0.47
2019-03-21T07:08:32.852Z,-0.38
2019-03-21T07:11:05.416Z,-0.25
2019-03-21T07:13:37.992Z,-0.14
2019-03-21T07:16:11.819Z,-0.03
2019-03-21T07:18:44.352Z,0.08
2019-03-21T07:21:16.882Z,0.21
2019-03-21T07:23:49.383Z,0.36
2019-03-21T07:26:21.902Z,0.48
2019-03-21T07:28:54.408Z,0.65
2019-03-21T07:31:26.999Z,0.73
2019-03-21T07:33:59.580Z,0.87
2019-03-21T07:36:32.143Z,1.22
2019-03-21T07:39:06.040Z,1.45
2019-03-21T07:41:38.842Z,1.68
2019-03-21T07:44:12.563Z,1.93
2019-03-21T07:46:45.144Z,2.16
2019-03-21T07:49:17.647Z,2.44
2019-03-21T07:51:51.305Z,2.68
2019-03-21T07:54:23.813Z,2.88
2019-03-21T07:56:56.398Z,3.09
2019-03-21T07:59:28.979Z,3.26
2019-03-21T08:02:01.559Z,3.45
2019-03-21T08:04:34.065Z,3.60
2019-03-21T08:07:06.650Z,3.77
2019-03-21T08:09:39.239Z,3.93
2019-03-21T08:12:12.365Z,4.01
2019-03-21T08:14:44.894Z,4.16
2019-03-21T08:17:17.876Z,4.33
2019-03-21T08:19:50.465Z,4.50
2019-03-21T08:22:23.085Z,4.59
2019-03-21T08:24:55.587Z,4.68
2019-03-21T08:27:28.388Z,4.78
2019-03-21T08:30:00.892Z,4.87
2019-03-21T08:32:33.420Z,4.99
2019-03-21T08:35:07.133Z,5.13
2019-03-21T08:37:40.684Z,5.21
2019-03-21T08:40:13.666Z,5.33
2019-03-21T08:42:46.227Z,5.45
2019-03-21T08:45:19.090Z,5.55
2019-03-21T08:47:52.279Z,5.65
2019-03-21T08:50:24.795Z,5.79
2019-03-21T08:52:57.296Z,5.88
2019-03-21T08:55:29.787Z,5.93
2019-03-21T08:58:02.374Z,6.08
2019-03-21T09:00:35.233Z,6.10
2019-03-21T09:03:07.747Z,6.16
2019-03-21T09:05:40.253Z,6.35
2019-03-21T09:08:13.798Z,6.40
2019-03-21T09:10:46.697Z,6.39
2019-03-21T09:13:19.220Z,6.41
2019-03-21T09:15:51.808Z,6.58
2019-03-21T09:18:24.466Z,6.75
2019-03-21T09:20:57.123Z,6.86
2019-03-21T09:23:29.993Z,6.97
2019-03-21T09:26:02.661Z,7.26
2019-03-21T09:28:35.180Z,7.21
2019-03-21T09:31:07.830Z,7.25
2019-03-21T09:33:40.358Z,7.29
2019-03-21T09:36:12.909Z,7.43
2019-03-21T09:38:45.413Z,7.57
2019-03-21T09:41:18.231Z,7.61
2019-03-21T09:43:50.815Z,7.63
2019-03-21T09:46:23.372Z,7.87
2019-03-21T09:48:55.879Z,7.90
2019-03-21T09:51:31.168Z,8.00
2019-03-21T09:54:09.695Z,8.21
2019-03-21T09:56:37.158Z,8.16
2019-03-21T09:59:09.672Z,8.18
2019-03-21T10:01:42.175Z,8.24
2019-03-21T10:04:14.746Z,8.28
2019-03-21T10:06:47.245Z,8.33
2019-03-21T10:09:20.152Z,8.50
2019-03-21T10:11:52.726Z,8.54
2019-03-21T10:14:25.324Z,8.81
2019-03-21T10:16:58.933Z,8.90
2019-03-21T10:19:31.567Z,8.92
2019-03-21T10:22:04.180Z,9.00
2019-03-21T10:24:36.778Z,9.08
2019-03-21T10:27:09.302Z,9.23
2019-03-21T10:29:41.814Z,9.13
2019-03-21T10:32:14.842Z,9.12
2019-03-21T10:34:47.535Z,9.09
2019-03-21T10:37:20.095Z,9.18
2019-03-21T10:39:52.617Z,9.28
2019-03-21T10:42:25.246Z,9.36
2019-03-21T10:44:57.826Z,9.40
2019-03-21T10:47:30.341Z,9.57
2019-03-21T10:50:02.856Z,9.75
2019-03-21T10:52:35.370Z,9.78
2019-03-21T10:55:08.152Z,9.99
2019-03-21T10:57:40.921Z,10.11
2019-03-21T11:00:13.821Z,10.20
2019-03-21T11:02:46.350Z,10.16
2019-03-21T11:05:18.894Z,10.39
2019-03-21T11:07:51.711Z,10.28
2019-03-21T11:10:24.307Z,10.57
2019-03-21T11:12:56.882Z,10.54
2019-03-21T11:15:29.927Z,10.38
2019-03-21T11:18:02.879Z,10.47
2019-03-21T11:20:37.554Z,10.51
2019-03-21T11:23:11.010Z,10.57
2019-03-21T11:25:43.689Z,10.63
2019-03-21T11:28:17.775Z,10.72
2019-03-21T11:30:50.617Z,10.73
2019-03-21T11:33:23.199Z,10.84
2019-03-21T11:35:56.362Z,10.98
2019-03-21T11:38:29.172Z,11.07
2019-03-21T11:41:01.782Z,11.17
2019-03-21T11:43:34.373Z,11.35
2019-03-21T11:46:06.907Z,11.42
2019-03-21T11:48:39.394Z,11.52
2019-03-21T11:51:12.022Z,12.26
2019-03-21T11:53:44.525Z,12.53
2019-03-21T11:56:17.045Z,12.21
2019-03-21T11:58:49.567Z,12.23
2019-03-21T12:01:22.090Z,12.34
2019-03-21T12:03:54.596Z,12.54
2019-03-21T12:06:27.114Z,12.19
2019-03-21T12:08:59.723Z,12.85
2019-03-21T12:11:32.240Z,12.87
2019-03-21T12:14:06.749Z,13.27
2019-03-21T12:16:39.266Z,12.89
2019-03-21T12:19:12.013Z,13.39
2019-03-21T12:21:44.526Z,13.87
2019-03-21T12:24:17.151Z,14.07
2019-03-21T12:26:49.662Z,13.74
2019-03-21T12:29:22.172Z,13.52
2019-03-21T12:31:54.698Z,13.24
2019-03-21T12:34:27.288Z,13.55
2019-03-21T12:37:00.112Z,14.13
2019-03-21T12:39:32.999Z,14.43
2019-03-21T12:42:05.705Z,14.08
2019-03-21T12:44:38.226Z,14.37
2019-03-21T12:47:10.816Z,14.96
2019-03-21T12:49:43.317Z,15.21
2019-03-21T12:52:15.839Z,14.50
2019-03-21T12:54:48.356Z,14.42
2019-03-21T12:57:20.868Z,14.49
2019-03-21T12:59:53.375Z,14.99
2019-03-21T13:02:32.256Z,14.85
2019-03-21T13:05:00.752Z,14.62
2019-03-21T13:07:33.248Z,15.53
2019-03-21T13:10:06.624Z,14.84
2019-03-21T13:12:39.137Z,14.56
2019-03-21T13:15:13.150Z,14.70
2019-03-21T13:17:45.664Z,15.36
2019-03-21T13:20:18.210Z,15.40
2019-03-21T13:22:53.209Z,15.65
2019-03-21T13:25:25.136Z,15.71
2019-03-21T13:27:58.012Z,16.63
2019-03-21T13:30:30.607Z,15.99
2019-03-21T13:33:03.264Z,15.46
2019-03-21T13:35:36.164Z,16.48
2019-03-21T13:38:08.761Z,16.32
2019-03-21T13:40:41.450Z,16.45
2019-03-21T13:43:14.418Z,16.65
2019-03-21T13:45:47.020Z,16.48
2019-03-21T13:48:19.618Z,16.55
2019-03-21T13:50:52.278Z,16.90
2019-03-21T13:53:25.023Z,16.13
2019-03-21T13:55:57.547Z,16.01
2019-03-21T13:58:30.113Z,15.93
2019-03-21T14:01:02.775Z,16.05
2019-03-21T14:03:35.356Z,15.97
2019-03-21T14:06:08.144Z,16.43
2019-03-21T14:08:40.923Z,16.39
2019-03-21T14:11:13.615Z,16.36
2019-03-21T14:13:46.125Z,16.47
2019-03-21T14:16:18.647Z,16.62
2019-03-21T14:18:51.231Z,16.93
2019-03-21T14:21:23.749Z,17.34
2019-03-21T14:23:56.250Z,17.75
2019-03-21T14:26:28.852Z,18.28
2019-03-21T14:29:12.145Z,17.92
2019-03-21T14:31:36.053Z,18.10
2019-03-21T14:34:08.565Z,18.24
2019-03-21T14:36:41.155Z,18.44
2019-03-21T14:39:13.657Z,18.83
2019-03-21T14:41:46.189Z,18.92
2019-03-21T14:44:19.137Z,18.95
2019-03-21T14:46:52.191Z,18.99
2019-03-21T14:49:24.686Z,19.13
2019-03-21T14:51:57.193Z,19.46
2019-03-21T14:54:29.697Z,19.32
2019-03-21T14:57:02.641Z,19.38
2019-03-21T14:59:35.140Z,19.52
2019-03-21T15:02:07.652Z,19.46
2019-03-21T15:04:40.290Z,19.50
2019-03-21T15:07:12.929Z,19.47
2019-03-21T15:09:45.751Z,19.80
2019-03-21T15:12:18.390Z,19.70
2019-03-21T15:14:51.168Z,19.69
2019-03-21T15:17:23.680Z,19.68
2019-03-21T15:19:56.256Z,19.71
2019-03-21T15:22:28.758Z,19.68
2019-03-21T15:25:01.275Z,20.10
2019-03-21T15:27:33.875Z,20.23
2019-03-21T15:30:09.507Z,20.00
2019-03-21T15:32:42.883Z,19.58
2019-03-21T15:35:16.907Z,19.88
2019-03-21T15:37:49.588Z,19.95
2019-03-21T15:40:25.297Z,19.97
2019-03-21T15:42:57.975Z,19.80
2019-03-21T15:45:30.897Z,19.58
2019-03-21T15:48:03.489Z,19.45
2019-03-21T15:50:38.092Z,19.67
2019-03-21T15:53:12.439Z,19.93
2019-03-21T15:55:45.002Z,19.92
2019-03-21T15:58:17.518Z,19.86
2019-03-21T16:00:50.173Z,19.38
2019-03-21T16:03:22.703Z,19.28
2019-03-21T16:05:55.195Z,19.37
2019-03-21T16:08:27.702Z,18.98
2019-03-21T16:11:00.231Z,19.14
2019-03-21T16:13:32.743Z,19.18
2019-03-21T16:16:05.341Z,19.20
2019-03-21T16:18:37.853Z,19.34
2019-03-21T16:21:10.355Z,19.44
2019-03-21T16:23:42.864Z,19.56
2019-03-21T16:26:15.366Z,19.68
2019-03-21T16:28:47.885Z,19.77
2019-03-21T16:31:20.408Z,19.59
2019-03-21T16:33:53.046Z,19.35
2019-03-21T16:36:25.623Z,19.32
2019-03-21T16:39:01.106Z,19.11
2019-03-21T16:41:34.149Z,18.70
2019-03-21T16:44:06.834Z,18.93
2019-03-21T16:46:39.442Z,19.13
2019-03-21T16:49:12.471Z,19.10
2019-03-21T16:51:45.105Z,19.00
2019-03-21T16:54:17.803Z,18.79
2019-03-21T16:56:50.351Z,18.35
2019-03-21T16:59:22.875Z,18.13
2019-03-21T17:01:55.795Z,17.40
2019-03-21T17:04:28.305Z,16.90
2019-03-21T17:07:00.803Z,16.29
2019-03-21T17:09:33.393Z,16.13
2019-03-21T17:12:06.040Z,15.61
2019-03-21T17:14:39.524Z,15.27
2019-03-21T17:17:12.502Z,15.17
2019-03-21T17:19:45.043Z,14.91
2019-03-21T17:22:18.714Z,14.58
2019-03-21T17:24:52.251Z,14.47
2019-03-21T17:27:24.746Z,14.36
2019-03-21T17:29:57.276Z,13.85
2019-03-21T17:32:29.968Z,13.73
2019-03-21T17:35:03.311Z,13.50
2019-03-21T17:37:35.899Z,13.28
2019-03-21T17:40:09.137Z,12.99
2019-03-21T17:42:41.711Z,12.76
2019-03-21T17:45:15.836Z,12.53
2019-03-21T17:47:48.424Z,12.25
2019-03-21T17:50:21.485Z,12.04
2019-03-21T17:52:54.049Z,11.81
2019-03-21T17:55:26.661Z,11.71
2019-03-21T17:57:59.228Z,11.24
2019-03-21T18:00:32.747Z,11.30
2019-03-21T18:03:05.464Z,11.19
2019-03-21T18:05:38.051Z,11.04
2019-03-21T18:08:10.560Z,10.80
2019-03-21T18:10:43.151Z,10.58
2019-03-21T18:13:15.659Z,10.36
2019-03-21T18:15:48.227Z,10.22
2019-03-21T18:18:21.018Z,10.06
2019-03-21T18:20:53.526Z,9.92
2019-03-21T18:23:26.023Z,9.53
2019-03-21T18:25:58.745Z,9.46
2019-03-21T18:28:31.399Z,9.28
2019-03-21T18:31:03.903Z,9.16
2019-03-21T18:33:37.436Z,9.05
2019-03-21T18:36:10.013Z,8.86
2019-03-21T18:38:42.500Z,8.80
2019-03-21T18:41:14.982Z,8.66
2019-03-21T18:43:48.170Z,8.47
2019-03-21T18:46:20.660Z,8.33
2019-03-21T18:48:53.344Z,8.15
2019-03-21T18:51:25.936Z,8.17
2019-03-21T18:53:58.701Z,8.28
2019-03-21T18:56:31.302Z,8.08
2019-03-21T18:59:04.874Z,7.93
2019-03-21T19:01:37.482Z,7.73
2019-03-21T19:04:09.953Z,7.74
2019-03-21T19:06:42.571Z,7.86
2019-03-21T19:09:15.169Z,7.56
2019-03-21T19:11:48.006Z,7.52
2019-03-21T19:14:20.838Z,7.42
2019-03-21T19:16:54.130Z,7.43
2019-03-21T19:19:27.050Z,7.43
2019-03-21T19:22:00.476Z,7.40
2019-03-21T19:24:32.964Z,7.38
2019-03-21T19:27:05.544Z,7.24
2019-03-21T19:29:38.035Z,7.24
2019-03-21T19:32:10.545Z,7.10
2019-03-21T19:34:43.211Z,7.01
2019-03-21T19:37:15.813Z,6.86
2019-03-21T19:39:49.296Z,6.72
2019-03-21T19:42:21.997Z,6.73
2019-03-21T19:44:54.477Z,6.68
2019-03-21T19:47:30.179Z,6.72
2019-03-21T19:50:01.541Z,6.70
2019-03-21T19:52:34.299Z,6.67
2019-03-21T19:55:09.176Z,6.79
2019-03-21T19:57:42.925Z,6.62
2019-03-21T20:00:18.533Z,6.63
2019-03-21T20:02:51.460Z,6.55
2019-03-21T20:05:24.195Z,6.48
2019-03-21T20:07:57.175Z,6.36
2019-03-21T20:10:29.789Z,6.24
2019-03-21T20:13:02.448Z,6.14
2019-03-21T20:15:36.479Z,6.01
2019-03-21T20:18:09.190Z,5.88
2019-03-21T20:20:41.954Z,5.68
2019-03-21T20:23:14.642Z,5.63
2019-03-21T20:25:47.224Z,5.37
2019-03-21T20:28:20.015Z,5.21
2019-03-21T20:30:52.668Z,5.18
2019-03-21T20:33:25.260Z,5.13
2019-03-21T20:35:58.064Z,5.09
2019-03-21T20:38:30.691Z,5.11
2019-03-21T20:41:03.283Z,5.10
2019-03-21T20:43:35.796Z,5.13
2019-03-21T20:46:08.382Z,5.10
2019-03-21T20:48:38.174Z,5.08
2019-03-21T20:51:12.365Z,5.15
2019-03-21T20:53:45.421Z,5.11
2019-03-21T20:56:18.104Z,4.98
2019-03-21T20:58:50.610Z,4.89
2019-03-21T21:01:23.187Z,4.72
2019-03-21T21:03:55.672Z,4.64
2019-03-21T21:06:28.198Z,4.50
2019-03-21T21:09:01.002Z,4.39
2019-03-21T21:11:35.475Z,4.28
2019-03-21T21:14:08.405Z,4.09
2019-03-21T21:16:40.953Z,4.05
2019-03-21T21:19:13.538Z,3.71
2019-03-21T21:21:46.126Z,3.78
2019-03-21T21:24:18.633Z,3.77
2019-03-21T21:26:51.244Z,3.78
2019-03-21T21:29:24.113Z,3.81
2019-03-21T21:31:56.892Z,3.83
2019-03-21T21:34:29.447Z,3.83
2019-03-21T21:37:01.980Z,3.80
2019-03-21T21:39:34.544Z,3.87
2019-03-21T21:42:07.200Z,3.81
2019-03-21T21:44:40.371Z,3.72
2019-03-21T21:47:12.879Z,3.81
2019-03-21T21:49:45.368Z,3.81
2019-03-21T21:52:17.970Z,3.70
2019-03-21T21:54:50.480Z,3.60
2019-03-21T21:57:23.356Z,3.52
2019-03-21T21:59:55.851Z,3.42
2019-03-21T22:02:28.368Z,3.21
2019-03-21T22:05:00.861Z,3.24
2019-03-21T22:07:33.372Z,3.00
2019-03-21T22:10:07.432Z,3.02
2019-03-21T22:12:40.014Z,2.88
2019-03-21T22:15:13.292Z,2.84
2019-03-21T22:17:45.901Z,2.80
2019-03-21T22:20:18.572Z,2.74
2019-03-21T22:22:51.072Z,2.69
2019-03-21T22:25:23.575Z,2.51
2019-03-21T22:27:56.143Z,2.48
2019-03-21T22:30:28.632Z,2.47
2019-03-21T22:33:01.143Z,2.50
2019-03-21T22:35:33.705Z,2.33
2019-03-21T22:38:06.663Z,2.27
2019-03-21T22:40:39.140Z,2.28
2019-03-21T22:43:12.753Z,2.20
2019-03-21T22:45:45.240Z,2.28
2019-03-21T22:48:17.759Z,2.26
2019-03-21T22:50:50.259Z,2.20
2019-03-21T22:53:22.832Z,2.22
2019-03-21T22:55:55.405Z,2.22
2019-03-21T22:58:32.018Z,2.28
2019-03-21T23:01:02.853Z,2.42
2019-03-21T23:03:37.029Z,2.34
2019-03-21T23:06:09.658Z,2.28
2019-03-21T23:08:42.171Z,2.25
2019-03-21T23:11:14.665Z,2.08
2019-03-21T23:13:48.768Z,2.03
2019-03-21T23:16:21.276Z,1.98
2019-03-21T23:18:53.815Z,1.92
2019-03-21T23:21:26.468Z,1.84
2019-03-21T23:23:58.983Z,1.81
2019-03-21T23:26:31.461Z,1.75
2019-03-21T23:29:04.043Z,1.69
2019-03-21T23:31:36.609Z,1.54
2019-03-21T23:34:09.462Z,1.61
2019-03-21T23:36:43.806Z,1.64
2019-03-21T23:39:16.260Z,1.56
2019-03-21T23:41:49.027Z,1.53
2019-03-21T23:44:21.627Z,1.51
2019-03-21T23:46:54.180Z,1.39
2019-03-21T23:49:27.043Z,1.41
2019-03-21T23:51:59.542Z,1.30
2019-03-21T23:54:32.380Z,1.30
2019-03-21T23:57:05.066Z,1.26
2019-03-21T23:59:37.989Z,1.09
